createdAt,value
2018-09-22T00:00:35.303Z,14.90
2018-09-22T00:03:06.432Z,14.90
2018-09-22T00:05:36.844Z,14.90
2018-09-22T00:08:07.008Z,15.00
2018-09-22T00:10:37.136Z,15.10
2018-09-22T00:13:07.352Z,15.00
2018-09-22T00:15:37.481Z,15.10
2018-09-22T00:18:07.800Z,15.10
2018-09-22T00:20:37.888Z,15.20
2018-09-22T00:23:08.029Z,15.30
2018-09-22T00:25:39.026Z,15.40
2018-09-22T00:28:09.168Z,15.40
2018-09-22T00:30:39.239Z,15.30
2018-09-22T00:33:09.376Z,15.30
2018-09-22T00:35:39.464Z,15.40
2018-09-22T00:38:09.556Z,15.40
2018-09-22T00:40:39.956Z,15.40
2018-09-22T00:43:10.069Z,15.50
2018-09-22T00:45:40.168Z,15.60
2018-09-22T00:48:10.287Z,15.70
2018-09-22T00:50:41.237Z,15.70
2018-09-22T00:53:11.344Z,15.70
2018-09-22T00:55:41.440Z,15.70
2018-09-22T00:58:11.536Z,15.80
2018-09-22T01:00:41.649Z,15.80
2018-09-22T01:03:11.776Z,15.80
2018-09-22T01:05:41.956Z,15.90
2018-09-22T01:08:12.089Z,15.90
2018-09-22T01:10:42.244Z,15.80
2018-09-22T01:13:12.552Z,15.90
2018-09-22T01:15:42.706Z,15.90
2018-09-22T01:18:12.824Z,15.90
2018-09-22T01:20:42.936Z,16.00
2018-09-22T01:23:13.056Z,16.00
2018-09-22T01:25:43.155Z,16.00
2018-09-22T01:28:13.240Z,16.10
2018-09-22T01:30:43.344Z,16.10
2018-09-22T01:33:13.442Z,16.10
2018-09-22T01:35:43.544Z,16.10
2018-09-22T01:38:13.626Z,16.20
2018-09-22T01:40:44.012Z,16.20
2018-09-22T01:43:14.211Z,16.20
2018-09-22T01:45:44.385Z,16.20
2018-09-22T01:48:14.556Z,16.20
2018-09-22T01:50:44.660Z,16.30
2018-09-22T01:53:14.828Z,16.30
2018-09-22T01:55:44.947Z,16.30
2018-09-22T01:58:15.044Z,16.40
2018-09-22T02:00:45.224Z,16.30
2018-09-22T02:03:15.299Z,16.40
2018-09-22T02:05:46.068Z,16.30
2018-09-22T02:08:16.200Z,16.50
2018-09-22T02:10:46.344Z,16.40
2018-09-22T02:13:16.532Z,16.20
2018-09-22T02:15:46.667Z,16.20
2018-09-22T02:18:16.760Z,16.20
2018-09-22T02:20:46.878Z,16.10
2018-09-22T02:23:16.944Z,16.10
2018-09-22T02:25:47.072Z,16.10
2018-09-22T02:28:17.152Z,16.10
2018-09-22T02:30:47.252Z,16.10
2018-09-22T02:33:17.380Z,16.10
2018-09-22T02:35:47.475Z,16.10
2018-09-22T02:38:17.642Z,16.10
2018-09-22T02:40:47.756Z,16.20
2018-09-22T02:43:17.858Z,16.20
2018-09-22T02:45:48.000Z,16.20
2018-09-22T02:48:18.092Z,16.20
2018-09-22T02:50:48.181Z,16.20
2018-09-22T02:53:18.281Z,16.20
2018-09-22T02:55:48.390Z,16.20
2018-09-22T02:58:25.072Z,16.20
2018-09-22T03:00:55.172Z,16.20
2018-09-22T03:03:25.248Z,16.20
2018-09-22T03:05:55.328Z,16.10
2018-09-22T03:08:25.435Z,16.10
2018-09-22T03:10:55.525Z,15.80
2018-09-22T03:13:25.613Z,15.50
2018-09-22T03:15:55.708Z,15.30
2018-09-22T03:18:25.806Z,14.90
2018-09-22T03:20:55.873Z,14.90
2018-09-22T03:23:26.030Z,14.80
2018-09-22T03:25:56.109Z,14.70
2018-09-22T03:28:26.180Z,14.60
2018-09-22T03:31:00.321Z,14.70
2018-09-22T03:33:30.425Z,14.50
2018-09-22T03:36:00.592Z,14.30
2018-09-22T03:38:30.656Z,14.30
2018-09-22T03:41:00.768Z,14.20
2018-09-22T03:43:30.873Z,14.00
2018-09-22T03:46:01.072Z,13.90
2018-09-22T03:48:31.456Z,13.90
2018-09-22T03:51:01.627Z,13.70
2018-09-22T03:53:31.936Z,13.60
2018-09-22T03:56:02.048Z,13.50
2018-09-22T03:58:32.201Z,13.40
2018-09-22T04:01:02.312Z,13.50
2018-09-22T04:03:32.376Z,13.50
2018-09-22T04:06:02.503Z,13.50
2018-09-22T04:08:32.600Z,13.50
2018-09-22T04:11:02.716Z,13.40
2018-09-22T04:13:32.816Z,13.40
2018-09-22T04:16:02.985Z,13.50
2018-09-22T04:18:33.072Z,13.50
2018-09-22T04:21:03.421Z,13.40
2018-09-22T04:23:33.568Z,13.60
2018-09-22T04:26:03.673Z,13.50
2018-09-22T04:28:33.732Z,13.50
2018-09-22T04:31:04.056Z,13.50
2018-09-22T04:33:34.176Z,13.50
2018-09-22T04:36:04.326Z,13.60
2018-09-22T04:38:34.438Z,13.60
2018-09-22T04:41:04.601Z,13.50
2018-09-22T04:43:34.938Z,13.70
2018-09-22T04:46:05.068Z,13.40
2018-09-22T04:48:35.140Z,13.30
2018-09-22T04:51:05.257Z,13.40
2018-09-22T04:53:35.340Z,13.40
2018-09-22T04:56:05.481Z,13.40
2018-09-22T04:58:35.548Z,13.30
2018-09-22T05:01:05.668Z,13.30
2018-09-22T05:03:35.740Z,13.20
2018-09-22T05:06:05.932Z,13.30
2018-09-22T05:08:36.031Z,13.20
2018-09-22T05:11:06.131Z,13.10
2018-09-22T05:13:36.216Z,12.90
2018-09-22T05:16:06.648Z,12.70
2018-09-22T05:18:36.757Z,12.60
2018-09-22T05:21:06.917Z,12.30
2018-09-22T05:23:37.012Z,12.30
2018-09-22T05:26:07.373Z,12.20
2018-09-22T05:28:37.580Z,12.00
2018-09-22T05:31:08.212Z,11.90
2018-09-22T05:33:38.463Z,11.60
2018-09-22T05:36:08.580Z,11.30
2018-09-22T05:38:38.890Z,11.10
2018-09-22T05:41:08.985Z,11.00
2018-09-22T05:43:39.083Z,10.90
2018-09-22T05:46:09.175Z,10.80
2018-09-22T05:48:39.240Z,10.70
2018-09-22T05:51:09.396Z,10.80
2018-09-22T05:53:39.548Z,10.80
2018-09-22T05:56:09.620Z,10.70
2018-09-22T05:58:39.718Z,10.70
2018-09-22T06:01:09.812Z,10.90
2018-09-22T06:03:39.929Z,10.90
2018-09-22T06:06:10.008Z,10.60
2018-09-22T06:08:40.100Z,10.60
2018-09-22T06:11:10.272Z,10.50
2018-09-22T06:13:40.436Z,10.40
2018-09-22T06:16:10.544Z,10.40
2018-09-22T06:18:40.681Z,10.30
2018-09-22T06:21:10.824Z,10.40
2018-09-22T06:23:40.952Z,10.50
2018-09-22T06:26:11.036Z,10.30
2018-09-22T06:28:41.183Z,10.40
2018-09-22T06:31:11.253Z,10.50
2018-09-22T06:33:41.354Z,10.50
2018-09-22T06:36:11.432Z,10.40
2018-09-22T06:38:41.569Z,10.30
2018-09-22T06:41:11.657Z,10.40
2018-09-22T06:43:41.737Z,10.40
2018-09-22T06:46:11.884Z,10.40
2018-09-22T06:48:41.912Z,10.50
2018-09-22T06:51:12.028Z,10.50
2018-09-22T06:53:42.160Z,10.50
2018-09-22T06:56:12.237Z,10.40
2018-09-22T06:58:42.316Z,10.40
2018-09-22T07:01:12.382Z,10.30
2018-09-22T07:03:42.498Z,10.20
2018-09-22T07:06:12.682Z,10.20
2018-09-22T07:08:42.754Z,10.10
2018-09-22T07:11:12.856Z,10.10
2018-09-22T07:13:43.031Z,10.10
2018-09-22T07:16:13.084Z,10.10
2018-09-22T07:18:43.180Z,10.10
2018-09-22T07:21:13.265Z,10.20
2018-09-22T07:23:43.369Z,10.20
2018-09-22T07:26:13.493Z,10.30
2018-09-22T07:28:43.580Z,10.20
2018-09-22T07:31:13.672Z,10.20
2018-09-22T07:33:43.787Z,10.30
2018-09-22T07:36:13.869Z,10.40
2018-09-22T07:38:43.946Z,10.50
2018-09-22T07:41:14.080Z,10.40
2018-09-22T07:43:44.186Z,10.40
2018-09-22T07:52:48.569Z,10.40
2018-09-22T07:55:18.672Z,10.30
2018-09-22T07:57:48.780Z,10.30
2018-09-22T08:00:18.928Z,10.30
2018-09-22T08:02:49.089Z,10.30
2018-09-22T08:05:19.181Z,10.20
2018-09-22T08:07:49.604Z,10.20
2018-09-22T08:10:19.708Z,10.10
2018-09-22T08:12:49.816Z,10.00
2018-09-22T08:15:19.944Z,10.00
2018-09-22T08:17:50.037Z,10.00
2018-09-22T08:20:20.139Z,9.90
2018-09-22T08:22:50.252Z,9.80
2018-09-22T08:25:20.480Z,9.70
2018-09-22T08:27:50.493Z,9.70
2018-09-22T08:30:20.605Z,9.60
2018-09-22T08:32:50.750Z,9.80
2018-09-22T08:35:20.883Z,9.60
2018-09-22T08:37:50.986Z,9.60
2018-09-22T08:40:21.101Z,9.40
2018-09-22T08:42:51.248Z,9.40
2018-09-22T08:45:21.353Z,9.50
2018-09-22T08:47:51.466Z,9.50
2018-09-22T08:50:21.581Z,9.50
2018-09-22T08:52:52.085Z,9.40
2018-09-22T08:55:22.177Z,9.60
2018-09-22T08:57:52.289Z,9.60
2018-09-22T09:00:22.401Z,9.70
2018-09-22T09:02:52.471Z,9.70
2018-09-22T09:05:22.566Z,9.60
2018-09-22T09:07:52.680Z,9.60
2018-09-22T09:10:22.752Z,9.60
2018-09-22T09:12:52.868Z,9.60
2018-09-22T09:15:22.997Z,9.60
2018-09-22T09:17:53.228Z,9.70
2018-09-22T09:20:23.336Z,9.70
2018-09-22T09:22:53.457Z,9.80
2018-09-22T09:25:23.720Z,9.80
2018-09-22T09:27:53.774Z,9.80
2018-09-22T09:30:24.025Z,10.00
2018-09-22T09:32:54.125Z,10.00
2018-09-22T09:35:24.249Z,9.80
2018-09-22T09:37:54.345Z,9.80
2018-09-22T09:40:24.508Z,9.90
2018-09-22T09:42:54.708Z,10.10
2018-09-22T09:45:24.828Z,10.20
2018-09-22T09:47:54.941Z,10.30
2018-09-22T09:50:25.040Z,10.30
2018-09-22T09:52:55.170Z,10.30
2018-09-22T09:55:25.686Z,10.30
2018-09-22T09:57:55.788Z,10.20
2018-09-22T10:00:31.056Z,10.20
2018-09-22T10:03:01.144Z,10.30
2018-09-22T10:05:31.733Z,10.30
2018-09-22T10:08:01.866Z,10.30
2018-09-22T10:10:31.980Z,10.40
2018-09-22T10:13:02.068Z,10.50
2018-09-22T10:15:32.317Z,10.40
2018-09-22T10:18:02.414Z,10.50
2018-09-22T10:20:32.553Z,10.50
2018-09-22T10:23:02.653Z,10.30
2018-09-22T10:25:32.798Z,10.50
2018-09-22T10:28:02.927Z,10.70
2018-09-22T10:30:33.089Z,10.60
2018-09-22T10:33:03.224Z,10.60
2018-09-22T10:35:33.349Z,10.60
2018-09-22T10:38:03.440Z,10.80
2018-09-22T10:40:33.542Z,10.80
2018-09-22T10:43:03.680Z,10.70
2018-09-22T10:45:33.796Z,10.60
2018-09-22T10:48:03.944Z,10.70
2018-09-22T10:50:34.036Z,10.40
2018-09-22T10:53:04.272Z,10.40
2018-09-22T10:55:34.286Z,10.50
2018-09-22T10:58:04.389Z,10.50
2018-09-22T11:00:34.480Z,10.70
2018-09-22T11:03:04.680Z,10.60
2018-09-22T11:05:34.767Z,10.70
2018-09-22T11:08:04.885Z,10.60
2018-09-22T11:10:34.968Z,10.60
2018-09-22T11:13:05.089Z,10.60
2018-09-22T11:15:35.204Z,10.70
2018-09-22T11:18:05.340Z,10.70
2018-09-22T11:20:35.496Z,10.60
2018-09-22T11:23:05.697Z,10.60
2018-09-22T11:25:35.864Z,10.70
2018-09-22T11:28:06.052Z,10.60
2018-09-22T11:30:36.158Z,10.70
2018-09-22T11:33:06.277Z,10.80
2018-09-22T11:35:36.424Z,10.80
2018-09-22T11:38:06.843Z,10.80
2018-09-22T11:40:36.940Z,10.90
2018-09-22T11:43:07.105Z,11.00
2018-09-22T11:45:37.228Z,10.90
2018-09-22T11:48:07.335Z,10.80
2018-09-22T11:50:37.439Z,10.90
2018-09-22T11:53:07.569Z,10.90
2018-09-22T11:55:37.693Z,11.00
2018-09-22T11:58:07.784Z,11.00
2018-09-22T12:00:37.889Z,10.90
2018-09-22T12:03:08.110Z,11.00
2018-09-22T12:05:38.200Z,10.90
2018-09-22T12:08:08.369Z,10.90
2018-09-22T12:10:38.472Z,10.80
2018-09-22T12:13:08.626Z,10.90
2018-09-22T12:15:38.729Z,10.90
2018-09-22T12:18:09.111Z,11.00
2018-09-22T12:20:39.190Z,11.00
2018-09-22T12:23:09.288Z,10.90
2018-09-22T12:25:39.401Z,11.00
2018-09-22T12:28:09.516Z,11.10
2018-09-22T12:30:39.619Z,11.00
2018-09-22T12:33:09.693Z,11.20
2018-09-22T12:35:39.845Z,11.10
2018-09-22T12:38:09.936Z,11.20
2018-09-22T12:40:40.061Z,11.30
2018-09-22T12:43:10.172Z,11.20
2018-09-22T12:45:40.325Z,11.10
2018-09-22T12:48:10.441Z,11.10
2018-09-22T12:50:40.545Z,11.10
2018-09-22T12:53:10.650Z,10.90
2018-09-22T12:55:40.760Z,10.90
2018-09-22T12:58:10.885Z,11.00
2018-09-22T13:00:40.989Z,11.00
2018-09-22T13:03:12.875Z,11.00
2018-09-22T13:05:42.980Z,10.90
2018-09-22T13:08:13.112Z,10.90
2018-09-22T13:10:43.222Z,10.90
2018-09-22T13:13:13.332Z,10.90
2018-09-22T13:15:43.472Z,10.90
2018-09-22T13:18:13.600Z,10.90
2018-09-22T13:20:43.720Z,10.90
2018-09-22T13:23:13.840Z,10.90
2018-09-22T13:25:43.949Z,11.00
2018-09-22T13:28:14.066Z,11.00
2018-09-22T13:30:44.169Z,11.00
2018-09-22T13:33:14.289Z,11.00
2018-09-22T13:35:44.441Z,11.10
2018-09-22T13:38:14.549Z,11.00
2018-09-22T13:40:44.655Z,11.00
2018-09-22T13:43:14.741Z,10.90
2018-09-22T13:45:44.842Z,11.00
2018-09-22T13:48:14.920Z,11.00
2018-09-22T13:50:45.095Z,11.00
2018-09-22T13:53:15.209Z,11.10
2018-09-22T13:55:45.332Z,11.10
2018-09-22T13:58:15.484Z,11.20
2018-09-22T14:00:45.584Z,11.30
2018-09-22T14:03:15.700Z,11.20
2018-09-22T14:05:45.817Z,11.20
2018-09-22T14:08:15.960Z,11.10
2018-09-22T14:10:46.060Z,11.10
2018-09-22T14:13:16.185Z,11.10
2018-09-22T14:15:46.277Z,11.10
2018-09-22T14:18:16.401Z,11.10
2018-09-22T14:20:46.508Z,11.10
2018-09-22T14:23:16.598Z,11.20
2018-09-22T14:25:47.016Z,11.20
2018-09-22T14:28:17.121Z,11.20
2018-09-22T14:30:47.232Z,11.10
2018-09-22T14:33:17.312Z,11.20
2018-09-22T14:35:47.453Z,11.20
2018-09-22T14:38:17.565Z,11.20
2018-09-22T14:40:47.668Z,11.20
2018-09-22T14:43:17.809Z,11.30
2018-09-22T14:45:47.916Z,11.30
2018-09-22T14:48:18.017Z,11.30
2018-09-22T14:50:48.135Z,11.40
2018-09-22T14:53:18.360Z,11.50
2018-09-22T14:55:48.426Z,11.50
2018-09-22T14:58:18.565Z,11.50
2018-09-22T15:00:48.673Z,11.50
2018-09-22T15:03:18.768Z,11.50
2018-09-22T15:05:48.962Z,11.60
2018-09-22T15:08:19.125Z,11.60
2018-09-22T15:10:49.237Z,11.60
2018-09-22T15:13:19.333Z,11.40
2018-09-22T15:15:49.474Z,11.40
2018-09-22T15:18:19.584Z,11.50
2018-09-22T15:20:49.653Z,11.40
2018-09-22T15:23:19.759Z,11.50
2018-09-22T15:25:49.919Z,11.50
2018-09-22T15:28:20.012Z,11.50
2018-09-22T15:30:50.097Z,11.50
2018-09-22T15:33:20.185Z,11.50
2018-09-22T15:35:50.298Z,11.30
2018-09-22T15:38:20.420Z,11.30
2018-09-22T15:40:50.503Z,11.30
2018-09-22T15:43:20.759Z,11.30
2018-09-22T15:45:50.837Z,11.30
2018-09-22T15:48:21.121Z,11.30
2018-09-22T15:50:51.112Z,11.30
2018-09-22T15:53:21.248Z,11.30
2018-09-22T15:55:51.317Z,11.20
2018-09-22T15:58:21.441Z,11.30
2018-09-22T16:00:51.564Z,11.20
2018-09-22T16:03:21.653Z,11.30
2018-09-22T16:05:51.752Z,11.10
2018-09-22T16:08:21.869Z,11.30
2018-09-22T16:10:52.056Z,11.20
2018-09-22T16:13:22.153Z,11.10
2018-09-22T16:15:52.283Z,11.10
2018-09-22T16:18:22.340Z,11.10
2018-09-22T16:20:52.485Z,11.00
2018-09-22T16:23:22.592Z,11.00
2018-09-22T16:25:52.706Z,10.90
2018-09-22T16:28:22.799Z,11.00
2018-09-22T16:30:52.915Z,10.90
2018-09-22T16:33:23.103Z,10.80
2018-09-22T16:35:53.203Z,10.70
2018-09-22T16:38:23.315Z,10.70
2018-09-22T16:40:53.508Z,10.70
2018-09-22T16:43:23.667Z,10.70
2018-09-22T16:45:53.773Z,10.70
2018-09-22T16:48:23.889Z,10.70
2018-09-22T16:50:54.025Z,10.70
2018-09-22T16:53:24.118Z,10.70
2018-09-22T16:55:54.383Z,10.70
2018-09-22T16:58:24.529Z,10.60
2018-09-22T17:00:54.593Z,10.60
2018-09-22T17:03:24.695Z,10.70
2018-09-22T17:05:54.828Z,10.70
2018-09-22T17:08:24.913Z,10.60
2018-09-22T17:10:55.089Z,10.60
2018-09-22T17:13:25.200Z,10.60
2018-09-22T17:15:55.339Z,10.60
2018-09-22T17:18:25.449Z,10.70
2018-09-22T17:20:55.620Z,10.70
2018-09-22T17:23:26.045Z,10.60
2018-09-22T17:25:56.235Z,10.70
2018-09-22T17:28:26.408Z,10.70
2018-09-22T17:30:56.556Z,10.70
2018-09-22T17:33:26.679Z,10.80
2018-09-22T17:35:56.856Z,10.80
2018-09-22T17:38:26.956Z,10.70
2018-09-22T17:40:57.924Z,10.90
2018-09-22T17:43:28.225Z,11.10
2018-09-22T17:45:58.542Z,11.00
2018-09-22T17:48:28.664Z,11.20
2018-09-22T17:50:58.829Z,11.10
2018-09-22T17:53:29.011Z,11.00
2018-09-22T17:55:59.116Z,11.00
2018-09-22T17:58:29.252Z,10.90
2018-09-22T18:00:59.368Z,10.80
2018-09-22T18:03:29.461Z,10.90
2018-09-22T18:05:59.577Z,10.90
2018-09-22T18:08:29.873Z,10.70
2018-09-22T18:11:02.268Z,10.70
2018-09-22T18:13:32.357Z,10.80
2018-09-22T18:16:02.508Z,10.80
2018-09-22T18:18:32.601Z,10.70
2018-09-22T18:21:02.697Z,10.70
2018-09-22T18:23:32.798Z,10.80
2018-09-22T18:26:03.012Z,10.80
2018-09-22T18:28:33.176Z,10.80
2018-09-22T18:31:05.063Z,10.70
2018-09-22T18:33:35.140Z,10.70
2018-09-22T18:36:05.249Z,10.70
2018-09-22T18:38:35.435Z,10.70
2018-09-22T18:41:05.608Z,10.60
2018-09-22T18:43:36.021Z,10.60
2018-09-22T18:46:06.132Z,10.50
2018-09-22T18:48:36.238Z,10.50
2018-09-22T18:51:06.396Z,10.50
2018-09-22T18:53:36.500Z,10.50
2018-09-22T18:56:06.628Z,10.60
2018-09-22T18:58:36.755Z,10.50
2018-09-22T19:01:07.159Z,10.50
2018-09-22T19:03:37.270Z,10.60
2018-09-22T19:06:07.701Z,10.60
2018-09-22T19:08:37.787Z,10.90
2018-09-22T19:11:07.557Z,11.00
2018-09-22T19:13:42.209Z,10.80
2018-09-22T19:16:23.019Z,10.80
2018-09-22T19:18:59.696Z,10.80
2018-09-22T19:21:36.213Z,10.70
2018-09-22T19:24:13.676Z,10.70
2018-09-22T19:26:46.624Z,10.70
2018-09-22T19:29:21.869Z,10.70
2018-09-22T19:31:55.129Z,10.60
2018-09-22T19:34:29.860Z,10.60
2018-09-22T19:37:03.205Z,10.70
2018-09-22T19:39:38.912Z,10.70
2018-09-22T19:42:15.824Z,10.70
2018-09-22T19:45:16.353Z,10.70
2018-09-22T19:47:50.046Z,10.70
2018-09-22T19:50:26.410Z,10.70
2018-09-22T19:52:56.591Z,10.70
2018-09-22T19:55:26.688Z,10.80
2018-09-22T19:57:56.818Z,10.70
2018-09-22T20:00:26.881Z,10.80
2018-09-22T20:02:56.993Z,10.80
2018-09-22T20:05:27.092Z,10.80
2018-09-22T20:07:57.181Z,10.80
2018-09-22T20:10:27.296Z,10.80
2018-09-22T20:12:57.457Z,10.80
2018-09-22T20:15:27.563Z,10.80
2018-09-22T20:17:57.730Z,10.80
2018-09-22T20:20:27.804Z,10.70
2018-09-22T20:22:57.887Z,10.70
2018-09-22T20:25:28.007Z,10.70
2018-09-22T20:27:58.103Z,10.70
2018-09-22T20:30:28.274Z,10.60
2018-09-22T20:32:58.309Z,10.90
2018-09-22T20:35:28.445Z,11.30
2018-09-22T20:37:58.604Z,11.10
2018-09-22T20:40:28.792Z,11.00
2018-09-22T20:42:58.889Z,10.90
2018-09-22T20:45:29.013Z,10.80
2018-09-22T20:47:59.105Z,10.90
2018-09-22T20:50:29.237Z,10.80
2018-09-22T20:52:59.340Z,10.80
2018-09-22T20:55:29.675Z,10.60
2018-09-22T20:57:59.857Z,10.60
2018-09-22T21:00:29.955Z,10.60
2018-09-22T21:03:00.134Z,10.60
2018-09-22T21:05:30.229Z,10.60
2018-09-22T21:08:00.356Z,10.60
2018-09-22T21:10:30.454Z,10.60
2018-09-22T21:13:00.547Z,10.60
2018-09-22T21:15:30.661Z,10.70
2018-09-22T21:18:00.780Z,10.60
2018-09-22T21:20:30.929Z,10.60
2018-09-22T21:23:01.012Z,10.60
2018-09-22T21:25:31.120Z,10.60
2018-09-22T21:28:04.037Z,10.60
2018-09-22T21:30:34.150Z,10.60
2018-09-22T21:33:04.244Z,10.60
2018-09-22T21:35:34.357Z,10.70
2018-09-22T21:38:04.489Z,10.70
2018-09-22T21:40:34.608Z,10.80
2018-09-22T21:43:04.760Z,10.80
2018-09-22T21:45:34.862Z,10.80
2018-09-22T21:48:05.019Z,10.70
2018-09-22T21:50:35.104Z,10.80
2018-09-22T21:53:05.212Z,10.70
2018-09-22T21:55:35.296Z,10.70
2018-09-22T21:58:05.448Z,10.70
2018-09-22T22:00:35.632Z,10.60
2018-09-22T22:03:05.817Z,10.60
2018-09-22T22:05:35.924Z,10.60
2018-09-22T22:08:06.053Z,10.60
2018-09-22T22:10:36.197Z,10.60
2018-09-22T22:13:06.303Z,10.80
2018-09-22T22:15:36.416Z,10.90
2018-09-22T22:18:06.520Z,10.80
2018-09-22T22:20:37.204Z,10.80
2018-09-22T22:23:07.365Z,11.20
2018-09-22T22:25:37.460Z,11.20
2018-09-22T22:28:07.584Z,11.00
2018-09-22T22:30:37.744Z,10.90
2018-09-22T22:33:07.963Z,10.80
2018-09-22T22:35:38.068Z,10.80
2018-09-22T22:38:08.197Z,10.80
2018-09-22T22:40:38.320Z,10.80
2018-09-22T22:43:08.424Z,10.70
2018-09-22T22:45:38.581Z,10.70
2018-09-22T22:48:08.668Z,10.60
2018-09-22T22:50:38.793Z,10.60
2018-09-22T22:53:08.989Z,10.60
2018-09-22T22:55:39.132Z,10.60
2018-09-22T22:58:09.237Z,10.60
2018-09-22T23:00:39.342Z,10.60
2018-09-22T23:03:09.456Z,10.60
2018-09-22T23:05:39.548Z,10.50
2018-09-22T23:08:09.657Z,10.50
2018-09-22T23:10:39.769Z,10.50
2018-09-22T23:13:09.888Z,10.60
2018-09-22T23:15:40.052Z,10.60
2018-09-22T23:18:10.177Z,10.50
2018-09-22T23:20:40.282Z,10.50
2018-09-22T23:23:10.392Z,10.40
2018-09-22T23:25:40.481Z,10.40
2018-09-22T23:28:10.627Z,10.50
2018-09-22T23:30:40.729Z,10.50
2018-09-22T23:33:10.823Z,10.40
2018-09-22T23:35:40.928Z,10.50
2018-09-22T23:38:11.073Z,10.50
2018-09-22T23:40:41.177Z,10.60
2018-09-22T23:43:11.306Z,10.60
2018-09-22T23:45:41.425Z,10.60
2018-09-22T23:48:11.645Z,10.60
2018-09-22T23:50:41.732Z,10.60
2018-09-22T23:53:11.832Z,10.50
2018-09-22T23:55:41.941Z,10.50
2018-09-22T23:58:12.053Z,10.50
